Trapper Creek, Alaska
Current Conditions -  °F | °C
As of 10:53 AM on Friday 28 Nov 2014 (Local Time) from PATK Reporting Station
Overcast Overcast  
Wind Chill:   Ceiling: 11000
Heat Index: 18°   Visibility: 10mi
Dew Point:   Wind: 8mph
Humidity: 52%   Direction: 30°NNE
Pressure: 30.21"   Gusts: NA
Location:  62.24°N, 150.42°W
Report Text: PATK 281953Z 03007KT 10SM SCT039 OVC110 M08/M16 A3021 RMK AO2 SLP239 T10781161
Loading
Personal Weather Stations






























Interactive Weather Map New forecast layout! Learn more

10-Day Weather Forecast

Advertisements
Track Severe Weather on mobile